createdAt,value
2018-12-03T00:03:28.972Z,11.26
2018-12-03T00:08:31.386Z,11.27
2018-12-03T00:13:33.850Z,11.31
2018-12-03T00:18:36.573Z,11.26
2018-12-03T00:23:38.990Z,11.26
2018-12-03T00:28:41.570Z,11.22
2018-12-03T00:33:44.007Z,11.18
2018-12-03T00:38:53.166Z,11.14
2018-12-03T00:43:55.691Z,11.13
2018-12-03T00:48:58.134Z,11.10
2018-12-03T00:54:00.624Z,11.10
2018-12-03T00:59:03.142Z,11.12
2018-12-03T01:04:05.971Z,11.11
2018-12-03T01:09:08.895Z,11.08
2018-12-03T01:14:11.339Z,11.07
2018-12-03T01:19:13.748Z,11.05
2018-12-03T01:24:16.185Z,11.01
2018-12-03T01:29:18.616Z,10.94
2018-12-03T01:34:21.329Z,10.91
2018-12-03T01:39:23.971Z,10.93
2018-12-03T01:44:26.404Z,10.94
2018-12-03T01:49:28.902Z,10.95
2018-12-03T01:54:31.263Z,10.97
2018-12-03T01:59:33.997Z,10.97
2018-12-03T02:04:36.650Z,10.95
2018-12-03T02:09:39.153Z,10.96
2018-12-03T02:14:41.534Z,11.00
2018-12-03T02:19:43.987Z,11.00
2018-12-03T02:24:46.507Z,11.10
2018-12-03T02:29:48.965Z,10.99
2018-12-03T02:34:51.438Z,11.11
2018-12-03T02:39:53.997Z,11.05
2018-12-03T02:44:56.443Z,11.05
2018-12-03T02:49:58.908Z,11.10
2018-12-03T02:55:01.399Z,11.05
2018-12-03T03:00:10.836Z,11.07
2018-12-03T03:05:14.472Z,10.99
2018-12-03T03:10:16.914Z,10.95
2018-12-03T03:15:19.342Z,10.99
2018-12-03T03:20:21.850Z,10.97
2018-12-03T03:25:24.324Z,10.93
2018-12-03T03:30:26.733Z,10.93
2018-12-03T03:35:29.293Z,11.05
2018-12-03T03:40:32.347Z,11.00
2018-12-03T03:45:35.148Z,11.03
2018-12-03T03:50:37.745Z,11.00
2018-12-03T03:55:40.537Z,11.11
2018-12-03T04:00:43.495Z,11.08
2018-12-03T04:05:46.229Z,11.04
2018-12-03T04:10:48.898Z,11.04
2018-12-03T04:15:52.519Z,11.04
2018-12-03T04:20:55.154Z,11.04
2018-12-03T04:25:57.726Z,11.06
2018-12-03T04:31:00.351Z,11.06
2018-12-03T04:36:03.223Z,11.15
2018-12-03T04:41:05.877Z,11.17
2018-12-03T04:46:08.541Z,11.26
2018-12-03T04:51:11.194Z,11.30
2018-12-03T04:56:13.908Z,11.33
2018-12-03T05:01:16.588Z,11.26
2018-12-03T05:06:19.266Z,11.32
2018-12-03T05:11:21.742Z,11.33
2018-12-03T05:16:24.194Z,11.33
2018-12-03T05:21:26.704Z,11.27
2018-12-03T05:26:29.251Z,11.19
2018-12-03T05:31:31.830Z,11.17
2018-12-03T05:36:34.298Z,11.19
2018-12-03T05:41:36.750Z,11.19
2018-12-03T05:46:39.258Z,11.19
2018-12-03T05:51:41.708Z,11.18
2018-12-03T05:56:44.182Z,11.22
2018-12-03T06:01:46.706Z,11.19
2018-12-03T06:06:49.165Z,11.23
2018-12-03T06:11:51.570Z,11.29
2018-12-03T06:16:54.122Z,11.27
2018-12-03T06:21:56.535Z,11.29
2018-12-03T06:26:59.823Z,11.31
2018-12-03T06:32:02.647Z,11.31
2018-12-03T06:37:12.498Z,11.30
2018-12-03T06:42:15.141Z,11.29
2018-12-03T06:47:17.625Z,11.36
2018-12-03T06:52:19.989Z,11.38
2018-12-03T06:57:22.391Z,11.37
2018-12-03T07:02:24.857Z,11.41
2018-12-03T07:07:27.878Z,11.46
2018-12-03T07:12:30.302Z,11.47
2018-12-03T07:17:32.729Z,11.50
2018-12-03T07:22:35.137Z,11.55
2018-12-03T07:27:37.598Z,11.53
2018-12-03T07:32:40.052Z,11.50
2018-12-03T07:37:42.790Z,11.51
2018-12-03T07:42:45.294Z,11.59
2018-12-03T07:47:48.241Z,11.49
2018-12-03T07:52:51.867Z,11.52
2018-12-03T07:57:58.698Z,11.46
2018-12-03T08:03:01.182Z,11.45
2018-12-03T08:08:03.668Z,11.47
2018-12-03T08:13:08.076Z,11.51
2018-12-03T08:18:13.406Z,11.66
2018-12-03T08:23:19.546Z,11.73
2018-12-03T08:28:21.930Z,11.80
2018-12-03T08:33:24.367Z,11.89
2018-12-03T08:38:26.778Z,11.96
2018-12-03T08:43:29.222Z,12.00
2018-12-03T08:48:35.490Z,12.01
2018-12-03T08:53:38.072Z,12.00
2018-12-03T08:58:41.943Z,11.97
2018-12-03T09:03:47.691Z,12.13
2018-12-03T09:08:50.956Z,12.34
2018-12-03T09:13:53.699Z,12.34
2018-12-03T09:18:56.105Z,12.32
2018-12-03T09:23:59.896Z,12.40
2018-12-03T09:29:02.398Z,12.42
2018-12-03T09:34:05.330Z,12.49
2018-12-03T09:39:13.762Z,12.40
2018-12-03T09:44:16.168Z,12.38
2018-12-03T09:49:18.534Z,12.34
2018-12-03T09:54:20.926Z,12.33
2018-12-03T09:59:24.002Z,12.33
2018-12-03T10:04:29.216Z,12.32
2018-12-03T10:09:35.814Z,12.21
2018-12-03T10:14:38.336Z,12.26
2018-12-03T10:19:40.698Z,12.19
2018-12-03T10:24:43.156Z,12.18
2018-12-03T10:29:45.559Z,12.12
2018-12-03T10:34:48.079Z,12.07
2018-12-03T10:39:51.114Z,12.09
2018-12-03T10:44:53.474Z,12.20
2018-12-03T10:49:56.852Z,12.29
2018-12-03T10:54:59.258Z,12.36
2018-12-03T11:00:01.774Z,12.35
2018-12-03T11:07:15.267Z,12.36
2018-12-03T11:12:17.749Z,12.38
2018-12-03T11:17:20.299Z,12.41
2018-12-03T11:22:22.773Z,12.37
2018-12-03T11:27:25.306Z,12.33
2018-12-03T11:32:27.681Z,12.30
2018-12-03T11:37:30.681Z,12.20
2018-12-03T11:42:36.494Z,12.24
2018-12-03T11:47:38.943Z,12.24
2018-12-03T11:52:41.400Z,12.16
2018-12-03T11:57:43.882Z,12.11
2018-12-03T12:02:46.671Z,12.06
2018-12-03T12:07:49.194Z,12.02
2018-12-03T12:12:51.861Z,11.97
2018-12-03T12:17:54.526Z,11.83
2018-12-03T12:22:57.267Z,11.75
2018-12-03T12:28:00.055Z,11.67
2018-12-03T12:33:02.530Z,11.59
2018-12-03T12:38:05.402Z,11.64
2018-12-03T12:43:08.086Z,11.65
2018-12-03T12:48:10.470Z,11.72
2018-12-03T12:53:12.912Z,11.60
2018-12-03T12:58:15.326Z,11.60
2018-12-03T13:03:18.077Z,11.60
2018-12-03T13:08:20.542Z,11.53
2018-12-03T13:13:24.129Z,11.47
2018-12-03T13:18:26.894Z,11.30
2018-12-03T13:23:29.418Z,11.18
2018-12-03T13:28:32.331Z,11.15
2018-12-03T13:33:35.320Z,11.11
2018-12-03T13:38:37.727Z,11.09
2018-12-03T13:43:40.216Z,11.11
2018-12-03T13:48:43.076Z,11.12
2018-12-03T13:53:45.633Z,11.14
2018-12-03T13:58:48.194Z,11.11
2018-12-03T14:03:50.683Z,11.02
2018-12-03T14:09:08.258Z,11.01
2018-12-03T14:14:55.411Z,10.99
2018-12-03T14:19:59.636Z,10.98
2018-12-03T14:25:02.100Z,10.94
2018-12-03T14:30:05.187Z,10.95
2018-12-03T14:35:11.101Z,10.88
2018-12-03T14:40:13.574Z,10.85
2018-12-03T14:45:16.074Z,10.76
2018-12-03T14:50:18.579Z,10.77
2018-12-03T14:55:21.097Z,10.75
2018-12-03T15:00:23.802Z,10.74
2018-12-03T15:05:26.399Z,10.75
2018-12-03T15:10:29.067Z,10.76
2018-12-03T15:15:31.462Z,10.76
2018-12-03T15:20:33.926Z,10.73
2018-12-03T15:25:36.365Z,10.75
2018-12-03T15:30:38.791Z,10.79
2018-12-03T15:35:41.242Z,10.75
2018-12-03T15:40:43.738Z,10.78
2018-12-03T15:45:46.186Z,10.77
2018-12-03T15:50:48.957Z,10.76
2018-12-03T15:55:51.419Z,10.71
2018-12-03T16:00:53.931Z,10.68
2018-12-03T16:05:56.328Z,10.65
2018-12-03T16:10:58.830Z,10.69
2018-12-03T16:16:01.311Z,10.65
2018-12-03T16:21:03.801Z,10.51
2018-12-03T16:26:06.277Z,10.61
2018-12-03T16:31:08.663Z,10.54
2018-12-03T16:36:11.240Z,10.51
2018-12-03T16:41:13.736Z,10.47
2018-12-03T16:46:16.102Z,10.40
2018-12-03T16:51:18.470Z,10.35
2018-12-03T16:56:20.913Z,10.38
2018-12-03T17:01:23.359Z,10.35
2018-12-03T17:06:25.747Z,10.43
2018-12-03T17:11:28.250Z,10.43
2018-12-03T17:16:30.786Z,10.44
2018-12-03T17:22:18.047Z,10.47
2018-12-03T17:27:20.498Z,10.45
2018-12-03T17:32:22.921Z,10.57
2018-12-03T17:37:25.395Z,10.56
2018-12-03T17:42:28.150Z,10.61
2018-12-03T17:47:30.698Z,10.53
2018-12-03T17:52:33.174Z,10.54
2018-12-03T17:57:35.791Z,10.56
2018-12-03T18:02:44.989Z,10.54
2018-12-03T18:07:47.411Z,10.47
2018-12-03T18:12:49.806Z,10.43
2018-12-03T18:17:52.420Z,10.44
2018-12-03T18:22:55.231Z,10.44
2018-12-03T18:28:00.194Z,10.42
2018-12-03T18:33:03.612Z,10.38
2018-12-03T18:38:05.214Z,10.39
2018-12-03T18:43:07.710Z,10.38
2018-12-03T18:48:12.027Z,10.33
2018-12-03T18:53:21.262Z,10.24
2018-12-03T18:58:36.962Z,10.29
2018-12-03T19:03:39.490Z,10.29
2018-12-03T19:08:41.907Z,10.29
2018-12-03T19:13:44.410Z,10.27
2018-12-03T19:18:46.919Z,10.30
2018-12-03T19:23:49.409Z,10.26
2018-12-03T19:28:51.796Z,10.27
2018-12-03T19:33:54.165Z,10.29
2018-12-03T19:38:56.724Z,10.27
2018-12-03T19:43:59.110Z,10.27
2018-12-03T19:49:01.648Z,10.27
2018-12-03T19:54:04.536Z,10.32
2018-12-03T19:59:07.174Z,10.31
2018-12-03T20:04:30.082Z,10.29
2018-12-03T20:09:32.611Z,10.29
2018-12-03T20:14:35.160Z,10.27
2018-12-03T20:19:37.622Z,10.30
2018-12-03T20:24:40.005Z,10.30
2018-12-03T20:29:56.713Z,10.31
2018-12-03T20:35:08.507Z,10.28
2018-12-03T20:40:17.396Z,10.30
2018-12-03T20:45:30.489Z,10.31
2018-12-03T20:50:55.105Z,10.33
2018-12-03T20:55:59.234Z,10.29
2018-12-03T21:01:01.902Z,10.25
2018-12-03T21:06:04.559Z,10.26
2018-12-03T21:11:07.283Z,10.21
2018-12-03T21:16:09.710Z,10.20
2018-12-03T21:21:13.601Z,10.23
2018-12-03T21:26:16.315Z,10.22
2018-12-03T21:31:18.836Z,10.18
2018-12-03T21:36:21.324Z,10.14
2018-12-03T21:41:24.226Z,10.08
2018-12-03T21:46:26.727Z,10.04
2018-12-03T21:51:29.424Z,10.36
2018-12-03T21:56:31.871Z,10.42
2018-12-03T22:01:34.309Z,10.52
2018-12-03T22:06:36.983Z,10.53
2018-12-03T22:11:39.469Z,10.61
2018-12-03T22:16:41.916Z,10.55
2018-12-03T22:21:44.379Z,10.41
2018-12-03T22:26:46.971Z,10.46
2018-12-03T22:31:49.363Z,10.38
2018-12-03T22:36:51.931Z,10.43
2018-12-03T22:41:54.845Z,10.46
2018-12-03T22:46:58.799Z,10.49
2018-12-03T22:52:01.423Z,10.56
2018-12-03T22:57:04.796Z,10.70
2018-12-03T23:02:07.331Z,10.64
2018-12-03T23:07:09.927Z,10.63
2018-12-03T23:12:12.589Z,10.59
2018-12-03T23:17:15.194Z,10.58
2018-12-03T23:22:17.587Z,10.58
2018-12-03T23:27:20.235Z,10.58
2018-12-03T23:32:22.982Z,10.48
2018-12-03T23:37:25.408Z,10.42
2018-12-03T23:42:28.369Z,10.50
2018-12-03T23:47:30.762Z,10.54
2018-12-03T23:52:33.201Z,10.64
2018-12-03T23:57:35.625Z,10.66
